sensor_id;sensor_type;location;lat;lon;timestamp;P1;durP1;ratioP1;P2;durP2;ratioP2
11303;SDS011;5707;49.588;12.148;2023-03-16T00:01:49;4.20;;;3.30;;
11303;SDS011;5707;49.588;12.148;2023-03-16T00:04:14;3.40;;;2.75;;
11303;SDS011;5707;49.588;12.148;2023-03-16T00:06:40;3.83;;;3.60;;
11303;SDS011;5707;49.588;12.148;2023-03-16T00:09:05;3.88;;;3.67;;
11303;SDS011;5707;49.588;12.148;2023-03-16T00:11:31;4.13;;;3.83;;
11303;SDS011;5707;49.588;12.148;2023-03-16T00:13:56;4.57;;;4.28;;
11303;SDS011;5707;49.588;12.148;2023-03-16T00:16:22;4.40;;;4.10;;
11303;SDS011;5707;49.588;12.148;2023-03-16T00:18:49;3.58;;;3.28;;
11303;SDS011;5707;49.588;12.148;2023-03-16T00:21:14;3.80;;;3.55;;
11303;SDS011;5707;49.588;12.148;2023-03-16T00:23:40;3.78;;;3.47;;
11303;SDS011;5707;49.588;12.148;2023-03-16T00:26:07;4.22;;;3.92;;
11303;SDS011;5707;49.588;12.148;2023-03-16T00:28:33;4.53;;;4.22;;
11303;SDS011;5707;49.588;12.148;2023-03-16T00:31:10;4.68;;;4.38;;
11303;SDS011;5707;49.588;12.148;2023-03-16T00:33:39;4.45;;;4.15;;
11303;SDS011;5707;49.588;12.148;2023-03-16T00:36:07;4.57;;;4.25;;
11303;SDS011;5707;49.588;12.148;2023-03-16T00:38:36;4.32;;;3.95;;
11303;SDS011;5707;49.588;12.148;2023-03-16T00:41:04;4.03;;;3.72;;
11303;SDS011;5707;49.588;12.148;2023-03-16T00:43:31;4.07;;;3.78;;
11303;SDS011;5707;49.588;12.148;2023-03-16T00:46:04;4.20;;;3.90;;
11303;SDS011;5707;49.588;12.148;2023-03-16T00:48:35;4.38;;;4.07;;
11303;SDS011;5707;49.588;12.148;2023-03-16T00:51:02;4.30;;;4.00;;
11303;SDS011;5707;49.588;12.148;2023-03-16T00:53:31;5.25;;;4.85;;
11303;SDS011;5707;49.588;12.148;2023-03-16T00:55:58;5.80;;;5.40;;
11303;SDS011;5707;49.588;12.148;2023-03-16T00:58:23;5.43;;;4.93;;
11303;SDS011;5707;49.588;12.148;2023-03-16T01:00:49;5.40;;;5.05;;
11303;SDS011;5707;49.588;12.148;2023-03-16T01:03:17;4.65;;;4.25;;
11303;SDS011;5707;49.588;12.148;2023-03-16T01:05:42;5.05;;;4.65;;
11303;SDS011;5707;49.588;12.148;2023-03-16T01:08:08;5.65;;;5.25;;
11303;SDS011;5707;49.588;12.148;2023-03-16T01:10:34;5.82;;;5.43;;
11303;SDS011;5707;49.588;12.148;2023-03-16T01:13:00;5.70;;;5.30;;
11303;SDS011;5707;49.588;12.148;2023-03-16T01:15:27;6.13;;;5.72;;
11303;SDS011;5707;49.588;12.148;2023-03-16T01:17:54;5.50;;;5.10;;
11303;SDS011;5707;49.588;12.148;2023-03-16T01:20:20;5.63;;;5.13;;
11303;SDS011;5707;49.588;12.148;2023-03-16T01:22:45;5.72;;;5.32;;
11303;SDS011;5707;49.588;12.148;2023-03-16T01:25:11;6.20;;;5.80;;
11303;SDS011;5707;49.588;12.148;2023-03-16T01:27:38;5.82;;;5.43;;
11303;SDS011;5707;49.588;12.148;2023-03-16T01:30:04;5.13;;;4.82;;
11303;SDS011;5707;49.588;12.148;2023-03-16T01:32:31;5.15;;;4.82;;
11303;SDS011;5707;49.588;12.148;2023-03-16T01:34:58;5.13;;;4.70;;
11303;SDS011;5707;49.588;12.148;2023-03-16T01:37:23;5.30;;;4.90;;
11303;SDS011;5707;49.588;12.148;2023-03-16T01:39:49;4.65;;;4.35;;
11303;SDS011;5707;49.588;12.148;2023-03-16T01:42:14;5.70;;;5.20;;
11303;SDS011;5707;49.588;12.148;2023-03-16T01:44:53;4.78;;;4.38;;
11303;SDS011;5707;49.588;12.148;2023-03-16T01:47:21;5.70;;;5.30;;
11303;SDS011;5707;49.588;12.148;2023-03-16T01:49:47;5.50;;;5.10;;
11303;SDS011;5707;49.588;12.148;2023-03-16T01:52:20;5.60;;;5.07;;
11303;SDS011;5707;49.588;12.148;2023-03-16T01:54:56;5.88;;;5.47;;
11303;SDS011;5707;49.588;12.148;2023-03-16T01:57:33;5.63;;;5.13;;
11303;SDS011;5707;49.588;12.148;2023-03-16T02:02:44;5.07;;;4.70;;
11303;SDS011;5707;49.588;12.148;2023-03-16T02:05:16;5.25;;;4.85;;
11303;SDS011;5707;49.588;12.148;2023-03-16T02:07:47;5.55;;;5.05;;
11303;SDS011;5707;49.588;12.148;2023-03-16T02:10:15;4.55;;;4.25;;
11303;SDS011;5707;49.588;12.148;2023-03-16T02:12:43;5.10;;;4.70;;
11303;SDS011;5707;49.588;12.148;2023-03-16T02:15:09;5.13;;;4.82;;
11303;SDS011;5707;49.588;12.148;2023-03-16T02:17:37;5.32;;;4.90;;
11303;SDS011;5707;49.588;12.148;2023-03-16T02:20:10;5.07;;;4.68;;
11303;SDS011;5707;49.588;12.148;2023-03-16T02:22:41;6.57;;;4.75;;
11303;SDS011;5707;49.588;12.148;2023-03-16T02:25:09;5.40;;;4.75;;
11303;SDS011;5707;49.588;12.148;2023-03-16T02:30:27;4.25;;;3.97;;
11303;SDS011;5707;49.588;12.148;2023-03-16T02:32:53;4.75;;;4.45;;
11303;SDS011;5707;49.588;12.148;2023-03-16T02:35:19;4.97;;;4.57;;
11303;SDS011;5707;49.588;12.148;2023-03-16T02:37:45;4.80;;;4.43;;
11303;SDS011;5707;49.588;12.148;2023-03-16T02:40:30;5.38;;;4.97;;
11303;SDS011;5707;49.588;12.148;2023-03-16T02:43:04;4.95;;;4.65;;
11303;SDS011;5707;49.588;12.148;2023-03-16T02:45:44;4.80;;;4.50;;
11303;SDS011;5707;49.588;12.148;2023-03-16T02:48:19;4.22;;;3.90;;
11303;SDS011;5707;49.588;12.148;2023-03-16T02:50:51;5.05;;;4.65;;
11303;SDS011;5707;49.588;12.148;2023-03-16T02:53:18;4.80;;;4.20;;
11303;SDS011;5707;49.588;12.148;2023-03-16T02:55:44;5.32;;;4.55;;
11303;SDS011;5707;49.588;12.148;2023-03-16T02:58:10;4.45;;;4.15;;
11303;SDS011;5707;49.588;12.148;2023-03-16T03:00:36;7.85;;;4.97;;
11303;SDS011;5707;49.588;12.148;2023-03-16T03:03:03;4.50;;;4.15;;
11303;SDS011;5707;49.588;12.148;2023-03-16T03:05:29;10.35;;;4.82;;
11303;SDS011;5707;49.588;12.148;2023-03-16T03:07:55;4.57;;;4.18;;
11303;SDS011;5707;49.588;12.148;2023-03-16T03:10:21;4.53;;;4.13;;
11303;SDS011;5707;49.588;12.148;2023-03-16T03:12:47;8.95;;;5.03;;
11303;SDS011;5707;49.588;12.148;2023-03-16T03:15:13;7.22;;;4.65;;
11303;SDS011;5707;49.588;12.148;2023-03-16T03:17:40;5.15;;;4.10;;
11303;SDS011;5707;49.588;12.148;2023-03-16T03:20:07;7.80;;;4.32;;
11303;SDS011;5707;49.588;12.148;2023-03-16T03:22:42;8.43;;;4.55;;
11303;SDS011;5707;49.588;12.148;2023-03-16T03:25:10;5.07;;;4.00;;
11303;SDS011;5707;49.588;12.148;2023-03-16T03:27:37;6.55;;;4.20;;
11303;SDS011;5707;49.588;12.148;2023-03-16T03:30:04;5.25;;;4.82;;
11303;SDS011;5707;49.588;12.148;2023-03-16T03:32:30;4.32;;;4.03;;
11303;SDS011;5707;49.588;12.148;2023-03-16T03:34:55;5.20;;;3.88;;
11303;SDS011;5707;49.588;12.148;2023-03-16T03:37:21;4.38;;;4.03;;
11303;SDS011;5707;49.588;12.148;2023-03-16T03:39:47;4.95;;;4.60;;
11303;SDS011;5707;49.588;12.148;2023-03-16T03:42:13;4.68;;;4.28;;
11303;SDS011;5707;49.588;12.148;2023-03-16T03:44:38;5.25;;;4.85;;
11303;SDS011;5707;49.588;12.148;2023-03-16T03:47:04;4.57;;;4.28;;
11303;SDS011;5707;49.588;12.148;2023-03-16T03:49:30;5.13;;;4.45;;
11303;SDS011;5707;49.588;12.148;2023-03-16T03:51:55;5.30;;;4.70;;
11303;SDS011;5707;49.588;12.148;2023-03-16T03:54:23;10.80;;;4.82;;
11303;SDS011;5707;49.588;12.148;2023-03-16T03:56:50;12.70;;;4.65;;
11303;SDS011;5707;49.588;12.148;2023-03-16T03:59:16;5.00;;;4.28;;
11303;SDS011;5707;49.588;12.148;2023-03-16T04:01:41;12.27;;;4.93;;
11303;SDS011;5707;49.588;12.148;2023-03-16T04:04:07;13.65;;;5.07;;
11303;SDS011;5707;49.588;12.148;2023-03-16T04:06:33;21.42;;;5.03;;
11303;SDS011;5707;49.588;12.148;2023-03-16T04:08:59;10.75;;;5.10;;
11303;SDS011;5707;49.588;12.148;2023-03-16T04:11:25;6.95;;;4.65;;
11303;SDS011;5707;49.588;12.148;2023-03-16T04:13:50;8.57;;;5.20;;
11303;SDS011;5707;49.588;12.148;2023-03-16T04:16:17;18.38;;;5.38;;
11303;SDS011;5707;49.588;12.148;2023-03-16T04:18:43;23.30;;;5.80;;
11303;SDS011;5707;49.588;12.148;2023-03-16T04:21:13;7.00;;;5.15;;
11303;SDS011;5707;49.588;12.148;2023-03-16T04:23:41;6.32;;;5.13;;
11303;SDS011;5707;49.588;12.148;2023-03-16T04:26:07;6.80;;;4.80;;
11303;SDS011;5707;49.588;12.148;2023-03-16T04:28:32;6.10;;;4.55;;
11303;SDS011;5707;49.588;12.148;2023-03-16T04:31:01;21.02;;;5.85;;
11303;SDS011;5707;49.588;12.148;2023-03-16T04:33:29;7.82;;;4.97;;
11303;SDS011;5707;49.588;12.148;2023-03-16T04:35:56;5.53;;;4.32;;
11303;SDS011;5707;49.588;12.148;2023-03-16T04:38:21;4.03;;;3.72;;
11303;SDS011;5707;49.588;12.148;2023-03-16T04:40:47;4.85;;;4.38;;
11303;SDS011;5707;49.588;12.148;2023-03-16T04:43:12;3.78;;;3.53;;
11303;SDS011;5707;49.588;12.148;2023-03-16T04:45:38;3.97;;;3.67;;
11303;SDS011;5707;49.588;12.148;2023-03-16T04:48:04;3.80;;;3.60;;
11303;SDS011;5707;49.588;12.148;2023-03-16T04:50:30;3.95;;;3.75;;
11303;SDS011;5707;49.588;12.148;2023-03-16T04:52:56;4.10;;;3.83;;
11303;SDS011;5707;49.588;12.148;2023-03-16T04:55:21;3.83;;;3.63;;
11303;SDS011;5707;49.588;12.148;2023-03-16T04:57:47;4.25;;;3.95;;
11303;SDS011;5707;49.588;12.148;2023-03-16T05:00:13;3.45;;;3.20;;
11303;SDS011;5707;49.588;12.148;2023-03-16T05:02:46;3.47;;;3.28;;
11303;SDS011;5707;49.588;12.148;2023-03-16T05:05:12;3.28;;;3.08;;
11303;SDS011;5707;49.588;12.148;2023-03-16T05:07:38;3.85;;;3.60;;
11303;SDS011;5707;49.588;12.148;2023-03-16T05:10:05;3.78;;;3.47;;
11303;SDS011;5707;49.588;12.148;2023-03-16T05:12:32;3.92;;;3.63;;
11303;SDS011;5707;49.588;12.148;2023-03-16T05:14:57;3.40;;;3.20;;
11303;SDS011;5707;49.588;12.148;2023-03-16T05:17:23;3.35;;;3.15;;
11303;SDS011;5707;49.588;12.148;2023-03-16T05:19:48;3.70;;;3.30;;
11303;SDS011;5707;49.588;12.148;2023-03-16T05:22:14;3.42;;;3.20;;
11303;SDS011;5707;49.588;12.148;2023-03-16T05:24:40;3.28;;;3.08;;
11303;SDS011;5707;49.588;12.148;2023-03-16T05:27:05;3.47;;;3.28;;
11303;SDS011;5707;49.588;12.148;2023-03-16T05:29:31;3.63;;;2.97;;
11303;SDS011;5707;49.588;12.148;2023-03-16T05:31:57;3.25;;;3.05;;
11303;SDS011;5707;49.588;12.148;2023-03-16T05:34:23;2.97;;;2.78;;
11303;SDS011;5707;49.588;12.148;2023-03-16T05:36:49;3.40;;;3.20;;
11303;SDS011;5707;49.588;12.148;2023-03-16T05:39:14;3.67;;;3.38;;
11303;SDS011;5707;49.588;12.148;2023-03-16T05:41:40;3.05;;;2.85;;
11303;SDS011;5707;49.588;12.148;2023-03-16T05:44:06;3.55;;;3.22;;
11303;SDS011;5707;49.588;12.148;2023-03-16T05:46:32;3.38;;;3.13;;
11303;SDS011;5707;49.588;12.148;2023-03-16T05:48:58;3.08;;;2.88;;
11303;SDS011;5707;49.588;12.148;2023-03-16T05:51:23;3.38;;;3.17;;
11303;SDS011;5707;49.588;12.148;2023-03-16T05:53:52;3.38;;;3.17;;
11303;SDS011;5707;49.588;12.148;2023-03-16T05:56:24;3.67;;;3.38;;
11303;SDS011;5707;49.588;12.148;2023-03-16T05:58:52;4.30;;;3.13;;
11303;SDS011;5707;49.588;12.148;2023-03-16T06:01:18;3.72;;;3.47;;
11303;SDS011;5707;49.588;12.148;2023-03-16T06:03:44;3.85;;;3.65;;
11303;SDS011;5707;49.588;12.148;2023-03-16T06:06:11;3.65;;;3.35;;
11303;SDS011;5707;49.588;12.148;2023-03-16T06:08:37;4.10;;;3.80;;
11303;SDS011;5707;49.588;12.148;2023-03-16T06:11:02;4.10;;;3.80;;
11303;SDS011;5707;49.588;12.148;2023-03-16T06:13:28;3.85;;;3.55;;
11303;SDS011;5707;49.588;12.148;2023-03-16T06:15:54;4.28;;;3.97;;
11303;SDS011;5707;49.588;12.148;2023-03-16T06:18:20;2.80;;;2.70;;
11303;SDS011;5707;49.588;12.148;2023-03-16T06:20:45;3.10;;;2.80;;
11303;SDS011;5707;49.588;12.148;2023-03-16T06:23:11;3.75;;;3.45;;
11303;SDS011;5707;49.588;12.148;2023-03-16T06:25:37;3.90;;;3.60;;
11303;SDS011;5707;49.588;12.148;2023-03-16T06:28:03;3.83;;;3.60;;
11303;SDS011;5707;49.588;12.148;2023-03-16T06:30:29;3.00;;;2.80;;
11303;SDS011;5707;49.588;12.148;2023-03-16T06:32:55;3.25;;;2.95;;
11303;SDS011;5707;49.588;12.148;2023-03-16T06:35:21;3.50;;;3.30;;
11303;SDS011;5707;49.588;12.148;2023-03-16T06:37:47;3.03;;;2.83;;
11303;SDS011;5707;49.588;12.148;2023-03-16T06:40:12;3.97;;;3.67;;
11303;SDS011;5707;49.588;12.148;2023-03-16T06:42:38;4.50;;;4.20;;
11303;SDS011;5707;49.588;12.148;2023-03-16T06:45:04;4.00;;;3.70;;
11303;SDS011;5707;49.588;12.148;2023-03-16T06:47:30;4.90;;;4.50;;
11303;SDS011;5707;49.588;12.148;2023-03-16T06:49:56;4.03;;;3.72;;
11303;SDS011;5707;49.588;12.148;2023-03-16T06:52:21;3.47;;;3.28;;
11303;SDS011;5707;49.588;12.148;2023-03-16T06:54:47;3.65;;;3.38;;
11303;SDS011;5707;49.588;12.148;2023-03-16T06:57:13;3.83;;;3.55;;
11303;SDS011;5707;49.588;12.148;2023-03-16T06:59:38;3.72;;;3.42;;
11303;SDS011;5707;49.588;12.148;2023-03-16T07:02:04;4.93;;;4.53;;
11303;SDS011;5707;49.588;12.148;2023-03-16T07:04:30;3.10;;;2.90;;
11303;SDS011;5707;49.588;12.148;2023-03-16T07:06:57;5.47;;;4.95;;
11303;SDS011;5707;49.588;12.148;2023-03-16T07:09:23;15.90;;;9.50;;
11303;SDS011;5707;49.588;12.148;2023-03-16T07:11:49;5.05;;;3.83;;
11303;SDS011;5707;49.588;12.148;2023-03-16T07:14:16;7.03;;;6.43;;
11303;SDS011;5707;49.588;12.148;2023-03-16T07:16:43;3.00;;;2.80;;
11303;SDS011;5707;49.588;12.148;2023-03-16T07:19:09;4.05;;;3.75;;
11303;SDS011;5707;49.588;12.148;2023-03-16T07:21:35;3.67;;;3.38;;
11303;SDS011;5707;49.588;12.148;2023-03-16T07:24:05;3.58;;;3.38;;
11303;SDS011;5707;49.588;12.148;2023-03-16T07:26:32;2.80;;;2.60;;
11303;SDS011;5707;49.588;12.148;2023-03-16T07:28:57;4.15;;;3.72;;
11303;SDS011;5707;49.588;12.148;2023-03-16T07:31:23;3.00;;;2.80;;
11303;SDS011;5707;49.588;12.148;2023-03-16T07:33:49;3.42;;;3.22;;
11303;SDS011;5707;49.588;12.148;2023-03-16T07:36:16;2.88;;;2.67;;
11303;SDS011;5707;49.588;12.148;2023-03-16T07:38:41;3.63;;;3.03;;
11303;SDS011;5707;49.588;12.148;2023-03-16T07:41:07;3.20;;;3.00;;
11303;SDS011;5707;49.588;12.148;2023-03-16T07:43:33;3.00;;;2.80;;
11303;SDS011;5707;49.588;12.148;2023-03-16T07:45:58;2.83;;;2.63;;
11303;SDS011;5707;49.588;12.148;2023-03-16T07:48:25;3.63;;;3.33;;
11303;SDS011;5707;49.588;12.148;2023-03-16T07:50:50;3.80;;;3.45;;
11303;SDS011;5707;49.588;12.148;2023-03-16T07:53:16;5.18;;;4.78;;
11303;SDS011;5707;49.588;12.148;2023-03-16T07:55:42;3.63;;;3.33;;
11303;SDS011;5707;49.588;12.148;2023-03-16T07:58:08;5.00;;;4.60;;
11303;SDS011;5707;49.588;12.148;2023-03-16T08:00:35;3.30;;;3.05;;
11303;SDS011;5707;49.588;12.148;2023-03-16T08:03:00;3.60;;;3.40;;
11303;SDS011;5707;49.588;12.148;2023-03-16T08:05:26;3.63;;;3.33;;
11303;SDS011;5707;49.588;12.148;2023-03-16T08:07:52;3.08;;;2.88;;
11303;SDS011;5707;49.588;12.148;2023-03-16T08:10:19;4.10;;;3.80;;
11303;SDS011;5707;49.588;12.148;2023-03-16T08:12:45;3.33;;;3.13;;
11303;SDS011;5707;49.588;12.148;2023-03-16T08:15:11;4.05;;;3.75;;
11303;SDS011;5707;49.588;12.148;2023-03-16T08:17:37;4.22;;;3.90;;
11303;SDS011;5707;49.588;12.148;2023-03-16T08:20:05;3.65;;;3.35;;
11303;SDS011;5707;49.588;12.148;2023-03-16T08:22:38;3.85;;;3.38;;
11303;SDS011;5707;49.588;12.148;2023-03-16T08:25:05;3.42;;;3.13;;
11303;SDS011;5707;49.588;12.148;2023-03-16T08:27:34;3.47;;;3.28;;
11303;SDS011;5707;49.588;12.148;2023-03-16T08:30:01;3.42;;;3.13;;
11303;SDS011;5707;49.588;12.148;2023-03-16T08:32:31;3.42;;;3.22;;
11303;SDS011;5707;49.588;12.148;2023-03-16T08:34:57;3.55;;;3.35;;
11303;SDS011;5707;49.588;12.148;2023-03-16T08:37:24;3.63;;;3.38;;
11303;SDS011;5707;49.588;12.148;2023-03-16T08:39:51;3.67;;;3.38;;
11303;SDS011;5707;49.588;12.148;2023-03-16T08:42:17;3.92;;;3.63;;
11303;SDS011;5707;49.588;12.148;2023-03-16T08:44:43;3.60;;;3.38;;
11303;SDS011;5707;49.588;12.148;2023-03-16T08:47:09;4.20;;;3.90;;
11303;SDS011;5707;49.588;12.148;2023-03-16T08:49:35;3.85;;;3.55;;
11303;SDS011;5707;49.588;12.148;2023-03-16T08:52:02;4.90;;;4.40;;
11303;SDS011;5707;49.588;12.148;2023-03-16T08:54:29;4.30;;;3.95;;
11303;SDS011;5707;49.588;12.148;2023-03-16T08:56:56;3.50;;;3.30;;
11303;SDS011;5707;49.588;12.148;2023-03-16T08:59:22;5.05;;;3.20;;
11303;SDS011;5707;49.588;12.148;2023-03-16T09:01:47;3.47;;;3.17;;
11303;SDS011;5707;49.588;12.148;2023-03-16T09:04:13;3.65;;;3.45;;
11303;SDS011;5707;49.588;12.148;2023-03-16T09:06:38;4.45;;;4.15;;
11303;SDS011;5707;49.588;12.148;2023-03-16T09:09:05;2.90;;;2.70;;
11303;SDS011;5707;49.588;12.148;2023-03-16T09:11:33;5.28;;;3.45;;
11303;SDS011;5707;49.588;12.148;2023-03-16T09:13:59;3.88;;;3.47;;
11303;SDS011;5707;49.588;12.148;2023-03-16T09:16:25;2.72;;;2.53;;
11303;SDS011;5707;49.588;12.148;2023-03-16T09:18:52;3.28;;;2.97;;
11303;SDS011;5707;49.588;12.148;2023-03-16T09:21:18;3.00;;;2.80;;
11303;SDS011;5707;49.588;12.148;2023-03-16T09:23:44;3.83;;;2.78;;
11303;SDS011;5707;49.588;12.148;2023-03-16T09:26:09;2.97;;;2.72;;
11303;SDS011;5707;49.588;12.148;2023-03-16T09:28:36;7.72;;;2.75;;
11303;SDS011;5707;49.588;12.148;2023-03-16T09:31:03;2.40;;;2.30;;
11303;SDS011;5707;49.588;12.148;2023-03-16T09:33:30;4.57;;;4.18;;
11303;SDS011;5707;49.588;12.148;2023-03-16T09:35:58;4.22;;;3.83;;
11303;SDS011;5707;49.588;12.148;2023-03-16T09:38:24;6.13;;;4.40;;
11303;SDS011;5707;49.588;12.148;2023-03-16T09:40:55;3.50;;;3.20;;
11303;SDS011;5707;49.588;12.148;2023-03-16T09:43:55;4.22;;;3.33;;
11303;SDS011;5707;49.588;12.148;2023-03-16T09:46:35;3.45;;;3.25;;
11303;SDS011;5707;49.588;12.148;2023-03-16T09:49:07;2.63;;;2.22;;
11303;SDS011;5707;49.588;12.148;2023-03-16T09:51:36;3.63;;;2.28;;
11303;SDS011;5707;49.588;12.148;2023-03-16T09:54:14;2.95;;;2.10;;
11303;SDS011;5707;49.588;12.148;2023-03-16T09:57:18;2.20;;;2.00;;
11303;SDS011;5707;49.588;12.148;2023-03-16T09:59:50;2.90;;;1.98;;
11303;SDS011;5707;49.588;12.148;2023-03-16T10:12:53;2.33;;;1.88;;
11303;SDS011;5707;49.588;12.148;2023-03-16T10:15:24;2.92;;;1.45;;
11303;SDS011;5707;49.588;12.148;2023-03-16T10:17:58;1.90;;;1.80;;
11303;SDS011;5707;49.588;12.148;2023-03-16T10:20:40;2.17;;;1.73;;
11303;SDS011;5707;49.588;12.148;2023-03-16T10:23:12;2.65;;;1.42;;
11303;SDS011;5707;49.588;12.148;2023-03-16T10:28:13;1.48;;;1.38;;
11303;SDS011;5707;49.588;12.148;2023-03-16T10:30:44;1.77;;;1.35;;
11303;SDS011;5707;49.588;12.148;2023-03-16T10:35:46;1.30;;;1.10;;
11303;SDS011;5707;49.588;12.148;2023-03-16T10:38:28;1.70;;;1.60;;
11303;SDS011;5707;49.588;12.148;2023-03-16T10:40:57;1.75;;;1.30;;
11303;SDS011;5707;49.588;12.148;2023-03-16T10:43:23;1.50;;;1.40;;
11303;SDS011;5707;49.588;12.148;2023-03-16T10:45:49;2.10;;;1.35;;
11303;SDS011;5707;49.588;12.148;2023-03-16T10:48:15;1.60;;;1.20;;
11303;SDS011;5707;49.588;12.148;2023-03-16T10:50:43;1.90;;;1.55;;
11303;SDS011;5707;49.588;12.148;2023-03-16T10:53:15;1.88;;;1.10;;
11303;SDS011;5707;49.588;12.148;2023-03-16T10:55:45;0.80;;;0.80;;
11303;SDS011;5707;49.588;12.148;2023-03-16T10:58:21;2.80;;;1.42;;
11303;SDS011;5707;49.588;12.148;2023-03-16T11:00:53;0.75;;;0.75;;
11303;SDS011;5707;49.588;12.148;2023-03-16T11:06:03;1.75;;;1.10;;
11303;SDS011;5707;49.588;12.148;2023-03-16T11:08:32;0.63;;;0.60;;
11303;SDS011;5707;49.588;12.148;2023-03-16T11:11:08;0.70;;;0.68;;
11303;SDS011;5707;49.588;12.148;2023-03-16T11:13:59;5.40;;;1.17;;
11303;SDS011;5707;49.588;12.148;2023-03-16T11:16:29;0.70;;;0.70;;
11303;SDS011;5707;49.588;12.148;2023-03-16T11:19:13;2.35;;;1.45;;
11303;SDS011;5707;49.588;12.148;2023-03-16T11:32:47;4.32;;;1.13;;
11303;SDS011;5707;49.588;12.148;2023-03-16T11:40:48;0.73;;;0.65;;
11303;SDS011;5707;49.588;12.148;2023-03-16T11:46:29;1.27;;;1.02;;
11303;SDS011;5707;49.588;12.148;2023-03-16T11:49:47;0.70;;;0.55;;
11303;SDS011;5707;49.588;12.148;2023-03-16T12:00:35;1.05;;;1.02;;
11303;SDS011;5707;49.588;12.148;2023-03-16T12:14:31;1.13;;;1.02;;
11303;SDS011;5707;49.588;12.148;2023-03-16T12:17:01;1.45;;;1.33;;
11303;SDS011;5707;49.588;12.148;2023-03-16T12:22:07;1.10;;;0.70;;
11303;SDS011;5707;49.588;12.148;2023-03-16T12:24:42;0.90;;;0.90;;
11303;SDS011;5707;49.588;12.148;2023-03-16T12:27:12;2.42;;;1.23;;
11303;SDS011;5707;49.588;12.148;2023-03-16T12:29:43;1.60;;;1.10;;
11303;SDS011;5707;49.588;12.148;2023-03-16T12:32:43;1.17;;;0.98;;
11303;SDS011;5707;49.588;12.148;2023-03-16T12:35:24;2.83;;;2.45;;
11303;SDS011;5707;49.588;12.148;2023-03-16T12:38:18;1.00;;;1.00;;
11303;SDS011;5707;49.588;12.148;2023-03-16T12:48:40;2.17;;;1.17;;
11303;SDS011;5707;49.588;12.148;2023-03-16T12:51:09;1.00;;;1.00;;
11303;SDS011;5707;49.588;12.148;2023-03-16T12:53:45;1.65;;;1.23;;
11303;SDS011;5707;49.588;12.148;2023-03-16T12:56:21;1.63;;;1.40;;
11303;SDS011;5707;49.588;12.148;2023-03-16T12:58:56;1.67;;;1.30;;
11303;SDS011;5707;49.588;12.148;2023-03-16T13:01:27;1.10;;;1.05;;
11303;SDS011;5707;49.588;12.148;2023-03-16T13:04:08;1.73;;;0.90;;
11303;SDS011;5707;49.588;12.148;2023-03-16T13:06:40;0.80;;;0.80;;
11303;SDS011;5707;49.588;12.148;2023-03-16T13:09:12;1.40;;;1.30;;
11303;SDS011;5707;49.588;12.148;2023-03-16T13:11:44;1.02;;;0.93;;
11303;SDS011;5707;49.588;12.148;2023-03-16T13:14:37;1.08;;;0.98;;
11303;SDS011;5707;49.588;12.148;2023-03-16T13:19:35;2.60;;;1.05;;
11303;SDS011;5707;49.588;12.148;2023-03-16T13:22:04;2.33;;;1.30;;
11303;SDS011;5707;49.588;12.148;2023-03-16T13:24:48;1.50;;;1.30;;
11303;SDS011;5707;49.588;12.148;2023-03-16T13:27:35;1.67;;;1.50;;
11303;SDS011;5707;49.588;12.148;2023-03-16T13:32:42;2.03;;;1.08;;
11303;SDS011;5707;49.588;12.148;2023-03-16T13:35:10;1.00;;;0.90;;
11303;SDS011;5707;49.588;12.148;2023-03-16T13:37:39;0.95;;;0.90;;
11303;SDS011;5707;49.588;12.148;2023-03-16T13:40:16;2.38;;;0.90;;
11303;SDS011;5707;49.588;12.148;2023-03-16T13:42:45;3.45;;;1.20;;
11303;SDS011;5707;49.588;12.148;2023-03-16T13:45:17;1.33;;;1.10;;
11303;SDS011;5707;49.588;12.148;2023-03-16T13:47:47;1.60;;;0.80;;
11303;SDS011;5707;49.588;12.148;2023-03-16T13:50:14;1.08;;;0.95;;
11303;SDS011;5707;49.588;12.148;2023-03-16T13:52:42;0.75;;;0.75;;
11303;SDS011;5707;49.588;12.148;2023-03-16T13:55:17;1.10;;;1.00;;
11303;SDS011;5707;49.588;12.148;2023-03-16T13:57:50;0.70;;;0.70;;
11303;SDS011;5707;49.588;12.148;2023-03-16T14:02:45;0.80;;;0.70;;
11303;SDS011;5707;49.588;12.148;2023-03-16T14:07:51;1.95;;;1.75;;
11303;SDS011;5707;49.588;12.148;2023-03-16T14:10:18;2.20;;;2.00;;
11303;SDS011;5707;49.588;12.148;2023-03-16T14:12:55;3.45;;;1.20;;
11303;SDS011;5707;49.588;12.148;2023-03-16T14:15:26;1.73;;;1.48;;
11303;SDS011;5707;49.588;12.148;2023-03-16T14:17:54;1.77;;;1.35;;
11303;SDS011;5707;49.588;12.148;2023-03-16T14:20:51;1.00;;;1.00;;
11303;SDS011;5707;49.588;12.148;2023-03-16T14:23:20;1.48;;;1.27;;
11303;SDS011;5707;49.588;12.148;2023-03-16T14:25:52;0.93;;;0.93;;
11303;SDS011;5707;49.588;12.148;2023-03-16T14:28:19;1.50;;;1.10;;
11303;SDS011;5707;49.588;12.148;2023-03-16T14:30:51;1.20;;;1.10;;
11303;SDS011;5707;49.588;12.148;2023-03-16T14:33:28;2.00;;;1.20;;
11303;SDS011;5707;49.588;12.148;2023-03-16T14:35:57;1.30;;;1.20;;
11303;SDS011;5707;49.588;12.148;2023-03-16T14:38:34;0.95;;;0.85;;
11303;SDS011;5707;49.588;12.148;2023-03-16T14:43:48;1.05;;;1.00;;
11303;SDS011;5707;49.588;12.148;2023-03-16T14:46:21;0.88;;;0.85;;
11303;SDS011;5707;49.588;12.148;2023-03-16T14:49:05;1.27;;;0.90;;
11303;SDS011;5707;49.588;12.148;2023-03-16T14:51:52;0.90;;;0.90;;
11303;SDS011;5707;49.588;12.148;2023-03-16T14:54:21;0.77;;;0.77;;
11303;SDS011;5707;49.588;12.148;2023-03-16T14:56:48;0.85;;;0.60;;
11303;SDS011;5707;49.588;12.148;2023-03-16T14:59:16;1.55;;;0.82;;
11303;SDS011;5707;49.588;12.148;2023-03-16T15:01:43;1.35;;;1.00;;
11303;SDS011;5707;49.588;12.148;2023-03-16T15:04:11;1.75;;;0.22;;
11303;SDS011;5707;49.588;12.148;2023-03-16T15:06:39;3.47;;;0.50;;
11303;SDS011;5707;49.588;12.148;2023-03-16T15:09:05;0.40;;;0.28;;
11303;SDS011;5707;49.588;12.148;2023-03-16T15:11:51;0.65;;;0.65;;
11303;SDS011;5707;49.588;12.148;2023-03-16T15:14:19;1.13;;;0.60;;
11303;SDS011;5707;49.588;12.148;2023-03-16T15:17:05;0.40;;;0.40;;
11303;SDS011;5707;49.588;12.148;2023-03-16T15:19:30;0.77;;;0.77;;
11303;SDS011;5707;49.588;12.148;2023-03-16T15:21:56;1.70;;;0.70;;
11303;SDS011;5707;49.588;12.148;2023-03-16T15:24:24;0.82;;;0.75;;
11303;SDS011;5707;49.588;12.148;2023-03-16T15:26:52;0.82;;;0.60;;
11303;SDS011;5707;49.588;12.148;2023-03-16T15:29:18;1.08;;;0.88;;
11303;SDS011;5707;49.588;12.148;2023-03-16T15:31:44;1.27;;;0.70;;
11303;SDS011;5707;49.588;12.148;2023-03-16T15:34:10;1.23;;;1.13;;
11303;SDS011;5707;49.588;12.148;2023-03-16T15:36:35;0.80;;;0.73;;
11303;SDS011;5707;49.588;12.148;2023-03-16T15:39:01;1.13;;;0.90;;
11303;SDS011;5707;49.588;12.148;2023-03-16T15:41:28;0.75;;;0.70;;
11303;SDS011;5707;49.588;12.148;2023-03-16T15:43:53;1.40;;;0.60;;
11303;SDS011;5707;49.588;12.148;2023-03-16T15:46:24;0.65;;;0.60;;
11303;SDS011;5707;49.588;12.148;2023-03-16T15:48:51;0.85;;;0.75;;
11303;SDS011;5707;49.588;12.148;2023-03-16T15:53:54;1.42;;;0.50;;
11303;SDS011;5707;49.588;12.148;2023-03-16T15:56:24;2.15;;;0.90;;
11303;SDS011;5707;49.588;12.148;2023-03-16T15:58:56;0.82;;;0.60;;
11303;SDS011;5707;49.588;12.148;2023-03-16T16:01:24;1.83;;;0.65;;
11303;SDS011;5707;49.588;12.148;2023-03-16T16:03:54;0.63;;;0.43;;
11303;SDS011;5707;49.588;12.148;2023-03-16T16:06:20;0.65;;;0.60;;
11303;SDS011;5707;49.588;12.148;2023-03-16T16:08:46;0.90;;;0.88;;
11303;SDS011;5707;49.588;12.148;2023-03-16T16:11:15;1.40;;;1.02;;
11303;SDS011;5707;49.588;12.148;2023-03-16T16:13:48;1.20;;;1.10;;
11303;SDS011;5707;49.588;12.148;2023-03-16T16:16:16;3.58;;;1.30;;
11303;SDS011;5707;49.588;12.148;2023-03-16T16:18:43;1.08;;;0.80;;
11303;SDS011;5707;49.588;12.148;2023-03-16T16:21:20;0.73;;;0.73;;
11303;SDS011;5707;49.588;12.148;2023-03-16T16:23:48;1.05;;;0.95;;
11303;SDS011;5707;49.588;12.148;2023-03-16T16:26:33;3.50;;;0.70;;
11303;SDS011;5707;49.588;12.148;2023-03-16T16:29:05;0.60;;;0.60;;